EST,Max TemperatureF,Mean TemperatureF,Min TemperatureF,Max Dew PointF,MeanDew PointF,Min DewpointF,Max Humidity, Mean Humidity, Min Humidity, Max Sea Level PressureIn, Mean Sea Level PressureIn, Min Sea Level PressureIn, Max VisibilityMiles, Mean VisibilityMiles, Min VisibilityMiles, Max Wind SpeedMPH, Mean Wind SpeedMPH, Max Gust SpeedMPH,PrecipitationIn, CloudCover, Events, WindDirDegrees
2013-1-1,19,16,12,10,7,0,86,69,54,30.12,30.04,29.97,10,10,7,15,8,18,0.00,4,Snow,267
2013-1-2,24,18,12,18,13,1,86,76,57,30.07,30.02,29.96,10,10,4,12,8,16,0.00,8,Snow,259
2013-1-3,26,20,15,19,16,10,86,79,59,30.01,29.96,29.86,10,9,2,14,5,23,0.00,6,Snow,272
2013-1-4,33,27,21,25,16,10,75,64,51,30.09,29.88,29.80,10,10,7,20,9,25,0.00,2,Snow,257
2013-1-5,35,27,19,30,23,16,87,77,64,30.15,30.00,29.81,10,10,10,14,5,20,0.00,6,,218
2013-1-6,30,24,17,27,19,12,93,79,74,30.21,29.97,29.77,10,9,1,17,5,24,0.00,7,Snow,307
2013-1-7,35,24,12,27,22,9,92,70,56,30.21,29.97,29.82,10,10,10,25,12,34,0.00,1,,215
2013-1-8,37,30,24,34,28,21,87,79,70,30.09,30.00,29.86,10,10,7,16,8,23,0.00,2,,202
2013-1-9,39,32,26,34,26,19,81,69,56,30.40,29.95,29.74,10,10,10,23,12,40,0.00,6,Snow,246
2013-1-10,37,29,21,34,27,18,87,80,69,30.48,30.35,30.05,10,10,10,13,5,18,0.00,1,Rain,174
2013-1-11,41,38,35,39,36,30,93,91,75,30.04,29.73,29.61,10,2,0,17,10,29,0.00,8,Fog-Rain,158
2013-1-12,42,35,28,41,34,23,93,84,66,29.91,29.67,29.52,10,7,0,18,10,28,0.00,4,Fog,213
2013-1-13,30,26,19,25,20,16,86,79,74,29.97,29.90,29.84,10,8,2,13,7,17,0.00,7,Snow,325
2013-1-14,23,16,10,16,8,5,86,69,50,30.30,30.22,29.99,10,10,2,15,10,20,0.00,2,Snow,257
2013-1-15,28,17,6,18,10,0,73,66,59,30.34,30.21,29.97,10,10,10,16,8,24,0.00,1,,234
2013-1-16,28,22,15,23,18,7,86,72,54,29.99,29.75,29.58,10,9,0,21,12,31,0.00,6,Snow,254
2013-1-17,15,8,1,10,-1,-9,85,64,35,30.29,30.19,30.01,10,10,2,20,9,26,0.00,3,Snow,288
2013-1-18,28,16,3,27,8,-6,93,78,58,30.32,30.04,29.72,10,7,0,12,6,,0.00,6,Snow,288
2013-1-19,33,24,15,30,22,12,93,87,68,29.79,29.62,29.41,10,6,1,26,5,41,0.00,8,Snow,263
2013-1-20,17,9,0,12,1,-9,85,69,52,30.13,29.98,29.50,10,6,1,29,18,44,0.00,5,Snow,291
2013-1-21,5,-1,-7,-8,-13,-20,77,59,43,30.07,29.99,29.93,10,10,7,22,13,30,0.00,3,Snow,288
2013-1-22,3,-4,-11,-15,-17,-20,71,54,43,30.21,30.15,30.06,10,10,5,20,15,26,0.00,3,Snow,276
2013-1-23,12,4,-4,7,-8,-15,85,60,44,30.27,30.10,30.00,10,9,1,18,9,28,0.00,5,Snow,283
2013-1-24,14,0,-14,7,-2,-18,85,77,62,30.60,30.49,30.28,10,9,2,13,5,17,0.00,4,Snow,313
2013-1-25,19,12,6,16,10,1,93,84,73,30.39,30.06,29.91,10,4,0,5,1,,0.00,8,Snow,312
2013-1-26,26,17,8,19,14,5,93,83,69,30.34,30.23,30.02,10,8,1,13,4,17,0.00,7,Snow,316
2013-1-27,35,25,15,30,24,12,93,84,74,30.34,30.21,30.00,10,8,2,14,6,20,0.00,8,Snow,193
2013-1-28,33,30,28,30,27,25,93,88,81,29.99,29.89,29.82,10,6,1,16,8,18,0.00,8,Snow,64
2013-1-29,37,34,30,36,31,28,93,90,81,29.92,29.62,29.48,10,6,0,15,9,20,0.00,8,Fog-Rain-Snow,102
2013-1-30,33,24,15,30,23,10,93,85,73,29.50,29.33,29.21,10,4,0,22,15,31,0.00,8,Rain-Snow,346
2013-1-31,17,14,10,12,9,7,86,80,68,29.84,29.57,29.27,10,4,0,17,11,30,0.00,8,Snow,311